KEWB/EWB METAR and TAF weather

Enter ICAO airport designator
Station Type Date Time Source
KEWB METAR 2019/08/17 10:53 UTC NOAA

KEWB 171053Z 11005KT 10SM OVC005 21/19 A3006 RMK AO2 SLP180 T02060189


Station Type Date Time Source
KEWB Decoded METAR 2019/08/17 10:53 UTC NOAA

Station name not available
Aug 17, 2019 - 06:53 AM EDT / 2019.08.17 1053 UTC
Wind: from the ESE (110 degrees) at 6 MPH (5 KT):0
Visibility: 10 mile(s):0
Sky conditions: overcast
Temperature: 69.1 F (20.6 C)
Dew Point: 66.0 F (18.9 C)
Relative Humidity: 89%
Pressure (altimeter): 30.06 in. Hg (1017 hPa)
ob: KEWB 171053Z 11005KT 10SM OVC005 21/19 A3006 RMK AO2 SLP180 T02060189
cycle: 11

Station Type Date Time Source
KEWB TAF UTC NOAA

Error!

Example: see airport list